Aérodrome :
LOGIN :

S'inscrire | Disclaimer

   EN    FR    IT 

 










Légende :    VFR   VFR Marginal   IFR   IFR Intensif   IFR Très Intensif
Visi : 
Plafond : 
>= 8 km
>= 3000ft
5 à 8 km
1000 à 3000 ft
1500m à 5 km
500 à 1000 ft
800 à 1500m
200 à 500 ft
< 800m
< 200 ft
Symboles :   Orages  Brouillard  Fortes neiges  Fortes précipitations  Vent > 20 kt
SIGMETs :   Divers  Orages  Givrage  Turbulence  Onde Orograph.  Cendres Volcan.






- Altitude de l'aérodrome : 741 ft
- Code IATA : PED


LKPD - Pardubice AB

DERNIER METAR :
  • 141900Z 07007KT 9999 FEW028 04/01 Q1009 NOSIG RMK BLU BLU

METARs EXPIRÉS :
  • 141800Z 07005KT 9999 BKN028 04/01 Q1009 NOSIG RMK BLU BLU
  • 141700Z 08006KT 9999 BKN030 05/01 Q1009 NOSIG RMK BLU BLU

TAF TAF LKPD
Valide du 14 à 18h jusqu'au 15 à 18h UTC


141700Z 1418/1518 10008KT 9999 BKN030
TEMPO 1418/1502 10016KT
BECMG 1502/1504 10012KT
TEMPO 1502/1512 12014G24KT
BECMG 1512/1514 15018KT
TEMPO 1512/1518 15025G35KT



MET'MAP, la Météo Aéronautique d'un coup d'oeil ! - Copyright ORBIFLY Décembre 2007 - Disclaimer

ORBIFLY MET'MAP TEAM :

Programmation & Développement : Alexandra Zaïnal
Conception & Développement : Baudouin d'Aumeries
Co-Programmation & Développement : Marc-Olivier Méhu
Soutien technique & logistique : Manuel Goepfert

Contact : metmap@orbifly.com




SOURCES & CREDITS :

   NOAA